aviador You're here:

KRHI Decoded Metar

RHINELANDER in WI, USA
Report Time2018-05-23 05:53:00
UTC Time2018-05-23 06:46:01
Flight Rules vfr VFR
WindCalm
Visibility9999 m
Phenomena:N/A
Clouds:N/A
Expected CloudBase > 400 ft AGL from Temp-Dew spread
CeilingNone
Temp12°C (ISA 0)
Dew Point11°C (94% RH)
QNH1019 hPa
Density Alt1,591 ft
Elevation1,591 ft
Report Wrong Elevation
Raw Report
KRHI 230553Z AUTO 00000KT 7SM CLR 12/11 A3010 RMK AO2 SLP192
T01170106 10244 20117 402670111 51010=

Extra information for KRHI:More info

Metar Taf Metar & Taf Last 4 Metars F.Rules Stats Wind Profile Meteogram Temp Stats Airport Information Weather charts Add Link Nearby VenuesMetar ALERT Operation Metar Decoded Social comments

AIRNAV info for KRHI